Spring Mountain Youth Camp, Nevada Weather observations

Data are for 60 minute period ending at time listed.
 Day   Time   Solar   Ave.   Ave.  Ave.  Vector  Max.   Baro.   Total    
  of    of     Rad.   Air    Rel.  Wind   Wind   Wind  Press.  Precip.   
Year   Day            Temp.  Hum.  Speed  Dir.   Gust                    
2017   (PST)  Kw/m2    F      %     mph   deg.    mph    mb.     in.     
-------------------------------------------------------------------------
  19   21:00   0.00   22.0    85    2.0    99     5.8   781.9    0.00 
  19   22:00   0.00   22.3    68    2.0   355     4.9   781.7    0.00 
  19   23:00   0.00   21.4    65    2.6    46     6.6   781.4    0.00 
  20    0:00   0.00   22.7    62    3.3    77     7.3   781.1    0.00 
  20    1:00   0.00   24.0    51    4.7    70     9.3   780.4    0.00 
  20    2:00   0.00   23.6    56    2.9   346     8.0   780.2    0.00 
  20    3:00   0.00   22.9    62    3.3    52     6.8   779.9    0.00 
  20    4:00   0.00   23.6    58    4.8   127    13.7   779.3    0.00 
  20    5:00   0.00   24.8    64    7.4   143    17.6   778.6    0.00 
  20    6:00   0.00   22.2    78    3.0     2     8.8   778.1    0.00 
  20    7:00   0.00   21.6    78    3.0    26     7.8   777.8    0.00 
  20    8:00   0.04   23.5    76    5.2   102    20.4   777.3    0.00 
  20    9:00   0.11   23.6    84    5.6   183    22.8   777.3    0.00 
  20   10:00   0.11   23.8    89    7.9   205    31.9   777.4    0.00 
  20   11:00   0.38   28.3    74   16.0   186    36.5   776.6    0.00 
  20   12:00   0.15   26.1    80   23.1   175    44.1   775.6    0.00 
  20   13:00   0.12   24.6    87   23.0   176    45.2   774.9    0.00 
  20   14:00   0.13   24.5    90   18.1   171    28.1   774.5    0.00 
  20   15:00   0.06   23.4    96   20.5   168    30.5   773.7    0.00 
  20   16:00   0.03   23.5    96   26.5   169    40.6   772.9    0.00 
  20   17:00   0.01   23.1    96   27.2   173    43.3   772.2    0.00 
  20   18:00   0.00   23.0    96   24.0   173    43.4   771.7    0.00 
  20   19:00   0.00   23.0    96   14.2   177    24.5   772.2    0.00 
  20   20:00   0.00   22.1    95   13.5   186    32.2   772.3    0.00 

Return to Spring Mountain Youth Camp graphs page.


Western Regional Climate Center,wrcc@dri.edu